createdAt,value
2019-01-29T00:00:25.984Z,52.43
2019-01-29T00:02:51.857Z,52.53
2019-01-29T00:05:17.711Z,58.57
2019-01-29T00:07:43.660Z,57.90
2019-01-29T00:10:09.532Z,55.60
2019-01-29T00:12:35.409Z,54.63
2019-01-29T00:15:01.592Z,57.30
2019-01-29T00:17:27.503Z,54.03
2019-01-29T00:19:53.367Z,52.17
2019-01-29T00:22:19.379Z,47.93
2019-01-29T00:24:45.275Z,51.00
2019-01-29T00:27:11.138Z,49.33
2019-01-29T00:29:37.041Z,50.30
2019-01-29T00:32:03.031Z,51.47
2019-01-29T00:34:28.910Z,48.83
2019-01-29T00:36:54.790Z,49.00
2019-01-29T00:39:20.719Z,48.10
2019-01-29T00:41:46.591Z,45.80
2019-01-29T00:44:12.588Z,50.63
2019-01-29T00:46:38.454Z,50.00
2019-01-29T00:49:04.372Z,47.17
2019-01-29T00:51:30.244Z,51.50
2019-01-29T00:53:56.183Z,48.03
2019-01-29T00:56:25.878Z,49.00
2019-01-29T00:58:51.809Z,49.17
2019-01-29T01:01:17.670Z,49.17
2019-01-29T01:03:43.545Z,48.80
2019-01-29T01:06:09.472Z,46.40
2019-01-29T01:08:35.353Z,51.73
2019-01-29T01:11:01.242Z,47.83
2019-01-29T01:13:27.116Z,49.17
2019-01-29T01:15:53.003Z,47.47
2019-01-29T01:18:18.856Z,48.93
2019-01-29T01:20:44.745Z,48.40
2019-01-29T01:23:10.730Z,48.53
2019-01-29T01:25:36.682Z,49.83
2019-01-29T01:28:02.561Z,46.47
2019-01-29T01:30:28.443Z,46.23
2019-01-29T01:32:54.331Z,45.80
2019-01-29T01:35:20.201Z,49.40
2019-01-29T01:37:46.207Z,45.47
2019-01-29T01:40:15.464Z,45.40
2019-01-29T01:42:41.370Z,47.45
2019-01-29T01:45:09.470Z,49.00
2019-01-29T01:47:35.341Z,46.97
2019-01-29T01:50:01.218Z,44.73
2019-01-29T01:52:27.149Z,46.93
2019-01-29T01:54:53.018Z,44.03
2019-01-29T01:57:18.967Z,45.87
2019-01-29T01:59:44.863Z,44.33
2019-01-29T02:02:10.695Z,45.50
2019-01-29T02:04:36.606Z,43.20
2019-01-29T02:07:02.593Z,41.80
2019-01-29T02:09:28.577Z,43.67
2019-01-29T02:11:54.519Z,43.67
2019-01-29T02:14:20.376Z,43.80
2019-01-29T02:16:46.260Z,43.93
2019-01-29T02:19:12.292Z,41.60
2019-01-29T02:21:38.270Z,41.23
2019-01-29T02:24:04.149Z,43.07
2019-01-29T02:26:30.046Z,41.43
2019-01-29T02:28:56.026Z,42.57
2019-01-29T02:31:21.914Z,39.47
2019-01-29T02:33:47.762Z,44.60
2019-01-29T02:36:13.688Z,41.20
2019-01-29T02:38:39.573Z,41.80
2019-01-29T02:41:05.766Z,40.70
2019-01-29T02:43:31.675Z,42.50
2019-01-29T02:45:57.538Z,41.03
2019-01-29T02:48:23.417Z,42.13
2019-01-29T02:50:49.328Z,41.27
2019-01-29T02:53:18.363Z,40.93
2019-01-29T02:55:43.021Z,41.55
2019-01-29T02:58:12.725Z,37.10
2019-01-29T03:00:38.606Z,37.50
2019-01-29T03:03:04.478Z,37.63
2019-01-29T03:05:30.351Z,39.60
2019-01-29T03:07:56.369Z,39.80
2019-01-29T03:10:24.382Z,36.42
2019-01-29T03:12:50.266Z,34.78
2019-01-29T03:15:18.971Z,36.30
2019-01-29T03:17:44.862Z,38.53
2019-01-29T03:20:12.761Z,37.63
2019-01-29T03:22:38.650Z,35.63
2019-01-29T03:25:07.338Z,34.13
2019-01-29T03:27:33.236Z,31.52
2019-01-29T03:29:59.108Z,31.90
2019-01-29T03:32:25.034Z,29.77
2019-01-29T03:34:50.914Z,33.03
2019-01-29T03:37:16.773Z,31.97
2019-01-29T03:39:42.624Z,31.07
2019-01-29T03:42:08.914Z,31.03
2019-01-29T03:44:34.817Z,30.40
2019-01-29T03:47:00.685Z,31.80
2019-01-29T03:49:26.618Z,31.00
2019-01-29T03:51:52.490Z,30.90
2019-01-29T03:54:18.380Z,31.77
2019-01-29T03:56:44.263Z,30.70
2019-01-29T03:59:10.144Z,31.53
2019-01-29T04:01:36.023Z,29.27
2019-01-29T04:04:01.969Z,30.63
2019-01-29T04:06:27.845Z,29.50
2019-01-29T04:08:53.761Z,31.03
2019-01-29T04:11:19.677Z,33.13
2019-01-29T04:13:45.554Z,29.57
2019-01-29T04:16:11.426Z,28.47
2019-01-29T04:18:37.314Z,32.07
2019-01-29T04:21:03.193Z,32.17
2019-01-29T04:23:29.173Z,28.07
2019-01-29T04:25:55.114Z,28.23
2019-01-29T04:28:21.036Z,29.33
2019-01-29T04:30:46.912Z,29.73
2019-01-29T04:33:12.794Z,29.63
2019-01-29T04:35:38.774Z,29.67
2019-01-29T04:38:04.758Z,28.37
2019-01-29T04:40:30.721Z,26.30
2019-01-29T04:42:56.671Z,26.87
2019-01-29T04:45:22.582Z,28.77
2019-01-29T04:47:48.458Z,26.27
2019-01-29T04:50:16.413Z,28.17
2019-01-29T04:52:42.268Z,26.33
2019-01-29T04:55:11.087Z,27.90
2019-01-29T04:57:36.960Z,26.02
2019-01-29T05:00:06.673Z,26.90
2019-01-29T05:02:32.552Z,26.05
2019-01-29T05:04:58.464Z,25.20
2019-01-29T05:07:24.401Z,25.50
2019-01-29T05:09:50.224Z,28.20
2019-01-29T05:12:16.368Z,26.77
2019-01-29T05:14:42.276Z,28.75
2019-01-29T05:17:08.150Z,25.80
2019-01-29T05:19:34.017Z,29.17
2019-01-29T05:21:59.900Z,25.53
2019-01-29T05:24:25.759Z,25.50
2019-01-29T05:26:51.679Z,25.87
2019-01-29T05:29:17.578Z,28.37
2019-01-29T05:31:43.469Z,25.73
2019-01-29T05:34:09.368Z,25.23
2019-01-29T05:36:35.237Z,23.40
2019-01-29T05:39:01.176Z,22.97
2019-01-29T05:41:27.049Z,23.97
2019-01-29T05:43:52.920Z,25.13
2019-01-29T05:46:18.863Z,23.97
2019-01-29T05:48:44.817Z,24.87
2019-01-29T05:51:10.804Z,24.67
2019-01-29T05:53:36.718Z,26.40
2019-01-29T05:56:02.786Z,25.83
2019-01-29T05:58:32.734Z,24.90
2019-01-29T06:00:58.626Z,23.57
2019-01-29T06:03:24.613Z,22.83
2019-01-29T06:05:50.638Z,25.20
2019-01-29T06:08:16.505Z,25.00
2019-01-29T06:10:42.386Z,24.70
2019-01-29T06:13:08.320Z,28.97
2019-01-29T06:15:34.208Z,25.07
2019-01-29T06:18:00.053Z,25.63
2019-01-29T06:20:28.195Z,25.63
2019-01-29T06:22:54.086Z,24.12
2019-01-29T06:25:19.984Z,24.90
2019-01-29T06:27:45.890Z,23.57
2019-01-29T06:30:14.188Z,22.20
2019-01-29T06:32:40.066Z,24.35
2019-01-29T06:35:11.555Z,21.40
2019-01-29T06:37:37.468Z,24.07
2019-01-29T06:40:07.168Z,24.90
2019-01-29T06:42:33.053Z,26.97
2019-01-29T06:44:59.004Z,27.00
2019-01-29T06:47:24.879Z,30.20
2019-01-29T06:49:50.793Z,26.70
2019-01-29T06:52:16.714Z,24.83
2019-01-29T06:54:42.621Z,24.17
2019-01-29T06:57:08.526Z,28.47
2019-01-29T06:59:34.456Z,24.93
2019-01-29T07:02:01.106Z,22.80
2019-01-29T07:04:26.982Z,33.08
2019-01-29T07:06:52.840Z,26.67
2019-01-29T07:09:18.715Z,27.10
2019-01-29T07:11:46.515Z,26.90
2019-01-29T07:14:12.540Z,27.35
2019-01-29T07:16:40.309Z,25.85
2019-01-29T07:19:08.237Z,25.10
2019-01-29T07:21:34.106Z,27.87
2019-01-29T07:23:59.960Z,26.63
2019-01-29T07:26:25.889Z,25.07
2019-01-29T07:28:51.769Z,23.13
2019-01-29T07:31:17.644Z,27.37
2019-01-29T07:33:43.523Z,29.73
2019-01-29T07:36:09.507Z,31.93
2019-01-29T07:38:35.432Z,25.83
2019-01-29T07:41:01.323Z,30.80
2019-01-29T07:43:27.173Z,30.17
2019-01-29T07:45:53.060Z,21.73
2019-01-29T07:48:18.922Z,28.47
2019-01-29T07:50:44.780Z,28.47
2019-01-29T07:53:10.920Z,26.87
2019-01-29T07:55:36.932Z,28.53
2019-01-29T07:58:02.958Z,25.70
2019-01-29T08:00:29.217Z,24.97
2019-01-29T08:02:55.339Z,24.67
2019-01-29T08:05:21.244Z,24.27
2019-01-29T08:07:47.133Z,20.03
2019-01-29T08:10:14.439Z,24.83
2019-01-29T08:12:40.362Z,22.03
2019-01-29T08:15:17.759Z,29.70
2019-01-29T08:17:43.739Z,28.10
2019-01-29T08:20:11.010Z,27.53
2019-01-29T08:22:36.917Z,24.53
2019-01-29T08:25:04.391Z,24.73
2019-01-29T08:27:30.337Z,23.50
2019-01-29T08:29:56.204Z,22.07
2019-01-29T08:32:22.073Z,26.63
2019-01-29T08:34:47.979Z,28.03
2019-01-29T08:37:13.953Z,30.40
2019-01-29T08:39:39.830Z,23.03
2019-01-29T08:42:05.681Z,32.70
2019-01-29T08:44:31.615Z,24.63
2019-01-29T08:46:57.503Z,25.93
2019-01-29T08:49:23.381Z,23.00
2019-01-29T08:51:49.268Z,28.43
2019-01-29T08:54:15.173Z,30.60
2019-01-29T08:56:41.105Z,27.73
2019-01-29T08:59:06.966Z,38.97
2019-01-29T09:01:36.396Z,25.00
2019-01-29T09:04:02.365Z,27.90
2019-01-29T09:06:28.219Z,24.73
2019-01-29T09:08:54.099Z,26.60
2019-01-29T09:11:20.002Z,25.23
2019-01-29T09:13:45.917Z,24.00
2019-01-29T09:16:11.812Z,21.73
2019-01-29T09:18:37.798Z,25.80
2019-01-29T09:21:03.831Z,24.73
2019-01-29T09:23:29.670Z,21.97
2019-01-29T09:25:55.534Z,23.67
2019-01-29T09:28:23.311Z,24.83
2019-01-29T09:30:49.276Z,24.67
2019-01-29T09:33:15.136Z,21.57
2019-01-29T09:35:41.010Z,28.63
2019-01-29T09:38:06.947Z,23.17
2019-01-29T09:40:32.828Z,23.70
2019-01-29T09:42:58.687Z,22.27
2019-01-29T09:45:24.590Z,24.60
2019-01-29T09:47:50.512Z,21.57
2019-01-29T09:50:23.425Z,27.50
2019-01-29T09:52:49.493Z,31.47
2019-01-29T09:55:17.323Z,20.17
2019-01-29T09:57:43.199Z,18.90
2019-01-29T10:00:30.290Z,21.03
2019-01-29T10:02:56.263Z,21.47
2019-01-29T10:05:22.433Z,16.57
2019-01-29T10:07:48.281Z,17.83
2019-01-29T10:10:14.167Z,18.67
2019-01-29T10:12:40.185Z,16.00
2019-01-29T10:15:09.925Z,23.67
2019-01-29T10:17:36.208Z,27.53
2019-01-29T10:20:04.178Z,27.97
2019-01-29T10:22:30.131Z,31.43
2019-01-29T10:24:56.018Z,29.57
2019-01-29T10:27:21.912Z,38.33
2019-01-29T10:29:47.807Z,32.73
2019-01-29T10:32:13.760Z,32.03
2019-01-29T10:34:39.645Z,32.07
2019-01-29T10:37:05.574Z,34.77
2019-01-29T10:39:31.616Z,33.60
2019-01-29T10:41:57.444Z,30.33
2019-01-29T10:44:23.365Z,29.60
2019-01-29T10:46:49.289Z,31.83
2019-01-29T10:49:15.293Z,33.07
2019-01-29T10:51:41.151Z,28.87
2019-01-29T10:54:07.054Z,28.73
2019-01-29T10:56:34.107Z,28.70
2019-01-29T10:59:00.388Z,28.70
2019-01-29T11:01:26.404Z,24.53
2019-01-29T11:03:52.325Z,27.27
2019-01-29T11:06:18.224Z,24.37
2019-01-29T11:08:44.129Z,23.57
2019-01-29T11:11:10.070Z,30.10
2019-01-29T11:13:35.977Z,26.27
2019-01-29T11:16:01.899Z,22.40
2019-01-29T11:18:27.810Z,24.53
2019-01-29T11:20:53.681Z,22.30
2019-01-29T11:23:19.704Z,24.97
2019-01-29T11:25:45.619Z,24.17
2019-01-29T11:28:11.536Z,26.43
2019-01-29T11:30:37.433Z,28.67
2019-01-29T11:33:03.618Z,28.57
2019-01-29T11:35:29.499Z,27.90
2019-01-29T11:37:55.379Z,29.90
2019-01-29T11:40:26.584Z,32.97
2019-01-29T11:42:52.587Z,29.03
2019-01-29T11:45:22.140Z,30.90
2019-01-29T11:47:48.042Z,30.83
2019-01-29T11:50:13.957Z,34.83
2019-01-29T11:52:39.800Z,34.87
2019-01-29T11:55:08.298Z,28.73
2019-01-29T11:57:34.222Z,34.67
2019-01-29T12:00:00.136Z,31.80
2019-01-29T12:02:28.467Z,30.00
2019-01-29T12:04:57.855Z,33.20
2019-01-29T12:07:23.791Z,30.30
2019-01-29T12:09:49.798Z,34.40
2019-01-29T12:12:15.773Z,31.03
2019-01-29T12:14:41.668Z,29.63
2019-01-29T12:17:07.790Z,30.03
2019-01-29T12:19:33.677Z,32.50
2019-01-29T12:21:59.652Z,28.60
2019-01-29T12:24:25.546Z,31.00
2019-01-29T12:26:51.398Z,29.90
2019-01-29T12:29:17.296Z,34.10
2019-01-29T12:31:43.274Z,27.97
2019-01-29T12:34:09.255Z,28.50
2019-01-29T12:36:35.215Z,24.93
2019-01-29T12:39:01.174Z,24.80
2019-01-29T12:41:27.058Z,27.53
2019-01-29T12:43:56.330Z,24.27
2019-01-29T12:46:22.332Z,24.80
2019-01-29T12:48:48.247Z,29.43
2019-01-29T12:51:16.054Z,28.23
2019-01-29T12:53:42.322Z,29.00
2019-01-29T12:56:08.181Z,30.00
2019-01-29T12:58:34.084Z,31.30
2019-01-29T13:01:00.177Z,30.40
2019-01-29T13:03:26.099Z,30.87
2019-01-29T13:05:53.063Z,30.87
2019-01-29T13:08:19.061Z,27.73
2019-01-29T13:10:44.949Z,27.03
2019-01-29T13:13:10.901Z,22.83
2019-01-29T13:15:36.759Z,26.13
2019-01-29T13:18:03.267Z,26.97
2019-01-29T13:20:29.358Z,28.20
2019-01-29T13:22:55.208Z,23.57
2019-01-29T13:25:21.084Z,21.93
2019-01-29T13:27:47.022Z,24.53
2019-01-29T13:30:16.711Z,32.30
2019-01-29T13:32:42.585Z,25.27
2019-01-29T13:35:09.325Z,25.87
2019-01-29T13:37:35.199Z,26.43
2019-01-29T13:40:02.333Z,26.87
2019-01-29T13:42:28.685Z,24.10
2019-01-29T13:44:54.583Z,27.30
2019-01-29T13:47:20.856Z,27.47
2019-01-29T13:49:46.792Z,26.00
2019-01-29T13:52:12.681Z,33.17
2019-01-29T13:54:38.547Z,28.53
2019-01-29T13:57:04.632Z,24.83
2019-01-29T13:59:30.529Z,29.27
2019-01-29T14:01:57.732Z,28.40
2019-01-29T14:04:23.897Z,27.23
2019-01-29T14:06:49.822Z,26.67
2019-01-29T14:09:15.673Z,21.10
2019-01-29T14:11:41.661Z,21.87
2019-01-29T14:14:07.518Z,23.33
2019-01-29T14:16:33.397Z,22.80
2019-01-29T14:18:59.312Z,27.70
2019-01-29T14:21:25.174Z,26.73
2019-01-29T14:23:51.128Z,24.53
2019-01-29T14:26:17.038Z,26.00
2019-01-29T14:28:42.923Z,25.80
2019-01-29T14:31:08.800Z,31.90
2019-01-29T14:33:34.663Z,27.37
2019-01-29T14:36:00.569Z,26.70
2019-01-29T14:38:30.561Z,23.47
2019-01-29T14:40:56.544Z,26.03
2019-01-29T14:43:25.947Z,26.40
2019-01-29T14:45:51.802Z,26.37
2019-01-29T14:48:17.700Z,24.43
2019-01-29T14:50:43.601Z,28.43
2019-01-29T14:53:09.463Z,36.63
2019-01-29T14:55:35.365Z,28.53
2019-01-29T14:58:01.233Z,29.23
2019-01-29T15:00:30.122Z,28.70
2019-01-29T15:02:58.334Z,34.70
2019-01-29T15:05:25.399Z,29.50
2019-01-29T15:07:55.297Z,25.97
2019-01-29T15:10:26.062Z,28.70
2019-01-29T15:12:52.165Z,31.07
2019-01-29T15:15:20.427Z,29.23
2019-01-29T15:17:48.352Z,29.40
2019-01-29T15:20:14.214Z,27.30
2019-01-29T15:22:40.085Z,29.37
2019-01-29T15:25:09.824Z,28.13
2019-01-29T15:27:35.707Z,28.67
2019-01-29T15:30:01.615Z,27.63
2019-01-29T15:32:27.482Z,29.07
2019-01-29T15:34:53.386Z,29.37
2019-01-29T15:37:19.281Z,26.83
2019-01-29T15:39:45.181Z,28.43
2019-01-29T15:42:11.049Z,27.87
2019-01-29T15:44:36.936Z,33.00
2019-01-29T15:47:02.999Z,28.97
2019-01-29T15:49:28.932Z,31.27
2019-01-29T15:51:54.797Z,30.10
2019-01-29T15:54:20.921Z,35.20
2019-01-29T15:56:46.931Z,31.63
2019-01-29T15:59:12.755Z,32.00
2019-01-29T16:01:38.872Z,33.43
2019-01-29T16:04:04.710Z,34.37
2019-01-29T16:06:30.823Z,34.37
2019-01-29T16:08:56.761Z,36.23
2019-01-29T16:11:22.775Z,32.10
2019-01-29T16:13:48.698Z,39.13
2019-01-29T16:16:15.878Z,37.17
2019-01-29T16:18:41.779Z,35.20
2019-01-29T16:21:07.690Z,37.37
2019-01-29T16:23:33.581Z,40.13
2019-01-29T16:25:59.458Z,40.50
2019-01-29T16:28:25.471Z,40.57
2019-01-29T16:30:51.382Z,41.67
2019-01-29T16:33:17.410Z,40.43
2019-01-29T16:35:43.309Z,39.23
2019-01-29T16:38:09.318Z,39.23
2019-01-29T16:40:37.392Z,43.17
2019-01-29T16:43:03.259Z,36.87
2019-01-29T16:45:31.083Z,45.83
2019-01-29T16:47:58.964Z,44.07
2019-01-29T16:50:25.159Z,36.73
2019-01-29T16:52:51.518Z,34.43
2019-01-29T16:55:18.680Z,33.53
2019-01-29T16:57:44.600Z,35.60
2019-01-29T17:00:25.421Z,27.07
2019-01-29T17:02:51.431Z,35.67
2019-01-29T17:05:17.331Z,30.57
2019-01-29T17:07:43.203Z,26.73
2019-01-29T17:10:12.484Z,27.67
2019-01-29T17:12:38.373Z,30.90
2019-01-29T17:15:08.054Z,33.07
2019-01-29T17:17:33.933Z,28.80
2019-01-29T17:19:59.896Z,28.77
2019-01-29T17:22:25.781Z,31.20
2019-01-29T17:24:51.645Z,28.17
2019-01-29T17:27:17.604Z,35.23
2019-01-29T17:29:43.489Z,29.60
2019-01-29T17:32:09.345Z,33.33
2019-01-29T17:34:35.292Z,38.00
2019-01-29T17:37:01.174Z,36.00
2019-01-29T17:39:27.143Z,40.00
2019-01-29T17:41:53.037Z,38.47
2019-01-29T17:44:18.969Z,44.03
2019-01-29T17:46:44.850Z,37.47
2019-01-29T17:49:10.887Z,38.90
2019-01-29T17:51:36.780Z,41.80
2019-01-29T17:54:02.764Z,44.27
2019-01-29T17:56:28.703Z,47.33
2019-01-29T17:58:54.584Z,61.23
2019-01-29T18:01:20.705Z,45.03
2019-01-29T18:03:46.583Z,48.77
2019-01-29T18:06:12.460Z,38.40
2019-01-29T18:08:38.361Z,46.67
2019-01-29T18:11:04.231Z,40.10
2019-01-29T18:13:30.114Z,38.60
2019-01-29T18:15:55.989Z,104.30
2019-01-29T18:18:21.933Z,37.37
2019-01-29T18:20:48.029Z,37.40
2019-01-29T18:23:14.040Z,37.20
2019-01-29T18:25:40.042Z,38.07
2019-01-29T18:28:08.428Z,38.60
2019-01-29T18:30:34.564Z,44.90
2019-01-29T18:33:00.497Z,40.03
2019-01-29T18:35:26.379Z,36.27
2019-01-29T18:37:52.262Z,33.93
2019-01-29T18:40:21.589Z,33.43
2019-01-29T18:42:47.733Z,33.70
2019-01-29T18:45:13.767Z,35.80
2019-01-29T18:47:39.584Z,33.83
2019-01-29T18:50:15.096Z,37.47
2019-01-29T18:52:41.179Z,32.67
2019-01-29T18:55:08.593Z,42.97
2019-01-29T18:57:34.547Z,32.90
2019-01-29T19:00:00.631Z,34.37
2019-01-29T19:02:26.522Z,35.27
2019-01-29T19:04:52.529Z,28.27
2019-01-29T19:07:18.485Z,27.73
2019-01-29T19:09:47.858Z,27.30
2019-01-29T19:12:13.844Z,28.87
2019-01-29T19:14:39.834Z,27.13
2019-01-29T19:17:05.814Z,24.20
2019-01-29T19:19:31.690Z,35.27
2019-01-29T19:21:57.578Z,26.63
2019-01-29T19:24:23.443Z,25.97
2019-01-29T19:26:49.533Z,29.33
2019-01-29T19:29:15.481Z,26.83
2019-01-29T19:31:41.323Z,25.53
2019-01-29T19:34:07.281Z,23.27
2019-01-29T19:36:33.170Z,24.07
2019-01-29T19:38:59.205Z,27.27
2019-01-29T19:41:25.128Z,27.03
2019-01-29T19:43:51.084Z,26.53
2019-01-29T19:46:17.097Z,27.27
2019-01-29T19:48:43.149Z,28.03
2019-01-29T19:51:09.021Z,28.27
2019-01-29T19:53:34.944Z,29.23
2019-01-29T19:56:00.835Z,30.53
2019-01-29T19:58:32.356Z,31.33
2019-01-29T20:00:54.597Z,29.27
2019-01-29T20:03:20.583Z,30.13
2019-01-29T20:05:46.464Z,30.70
2019-01-29T20:08:12.450Z,31.70
2019-01-29T20:10:39.432Z,30.93
2019-01-29T20:13:05.656Z,28.83
2019-01-29T20:15:31.895Z,26.13
2019-01-29T20:17:58.123Z,27.53
2019-01-29T20:20:27.646Z,30.23
2019-01-29T20:22:54.336Z,28.50
2019-01-29T20:25:22.679Z,25.97
2019-01-29T20:27:49.825Z,28.53
2019-01-29T20:30:20.107Z,26.23
2019-01-29T20:32:53.526Z,28.87
2019-01-29T20:35:17.233Z,31.30
2019-01-29T20:37:44.493Z,31.00
2019-01-29T20:40:13.939Z,31.77
2019-01-29T20:42:41.128Z,29.13
2019-01-29T20:45:09.899Z,26.00
2019-01-29T20:47:37.155Z,28.97
2019-01-29T20:50:07.841Z,32.67
2019-01-29T20:52:35.178Z,33.63
2019-01-29T20:55:02.386Z,29.77
2019-01-29T20:57:29.531Z,28.10
2019-01-29T20:59:56.495Z,30.27
2019-01-29T21:02:23.047Z,31.77
2019-01-29T21:04:49.489Z,29.73
2019-01-29T21:07:15.884Z,32.20
2019-01-29T21:09:42.064Z,29.93
2019-01-29T21:12:08.130Z,29.73
2019-01-29T21:14:34.021Z,32.47
2019-01-29T21:16:59.953Z,31.47
2019-01-29T21:19:25.839Z,32.00
2019-01-29T21:21:51.706Z,28.53
2019-01-29T21:24:17.571Z,28.83
2019-01-29T21:26:43.490Z,29.17
2019-01-29T21:29:09.495Z,30.27
2019-01-29T21:31:35.384Z,30.10
2019-01-29T21:34:01.282Z,26.87
2019-01-29T21:36:27.149Z,29.20
2019-01-29T21:38:53.025Z,27.53
2019-01-29T21:41:18.931Z,27.07
2019-01-29T21:43:44.831Z,29.00
2019-01-29T21:46:10.782Z,29.30
2019-01-29T21:48:36.698Z,32.20
2019-01-29T21:51:02.556Z,27.10
2019-01-29T21:53:28.501Z,25.97
2019-01-29T21:55:54.383Z,22.80
2019-01-29T21:58:20.445Z,23.43
2019-01-29T22:00:46.415Z,24.03
2019-01-29T22:03:13.108Z,23.53
2019-01-29T22:05:39.022Z,22.50
2019-01-29T22:08:05.810Z,23.60
2019-01-29T22:10:31.757Z,22.03
2019-01-29T22:13:01.129Z,22.70
2019-01-29T22:15:27.013Z,21.60
2019-01-29T22:17:52.915Z,21.50
2019-01-29T22:20:20.326Z,20.53
2019-01-29T22:22:46.387Z,20.07
2019-01-29T22:25:16.057Z,18.77
2019-01-29T22:27:41.937Z,17.83
2019-01-29T22:30:11.777Z,20.70
2019-01-29T22:32:37.963Z,15.77
2019-01-29T22:35:04.394Z,17.80
2019-01-29T22:37:30.375Z,15.10
2019-01-29T22:39:56.273Z,15.20
2019-01-29T22:42:22.452Z,14.10
2019-01-29T22:44:48.479Z,13.93
2019-01-29T22:47:14.404Z,13.20
2019-01-29T22:49:40.399Z,12.23
2019-01-29T22:52:06.338Z,13.73
2019-01-29T22:54:32.171Z,13.70
2019-01-29T22:56:58.052Z,10.47
2019-01-29T22:59:32.938Z,13.93
2019-01-29T23:01:51.852Z,10.83
2019-01-29T23:04:17.788Z,9.53
2019-01-29T23:06:48.929Z,9.63
2019-01-29T23:09:14.911Z,10.57
2019-01-29T23:11:40.759Z,10.97
2019-01-29T23:14:07.167Z,12.53
2019-01-29T23:16:33.070Z,9.33
2019-01-29T23:18:58.959Z,10.00
2019-01-29T23:21:24.900Z,10.20
2019-01-29T23:23:50.763Z,8.80
2019-01-29T23:26:16.628Z,11.00
2019-01-29T23:28:42.536Z,9.90
2019-01-29T23:31:08.429Z,8.20
2019-01-29T23:33:34.334Z,8.73
2019-01-29T23:36:00.326Z,10.47
2019-01-29T23:38:26.263Z,8.47
2019-01-29T23:40:52.134Z,8.33
2019-01-29T23:43:18.072Z,11.97
2019-01-29T23:45:44.043Z,7.90
2019-01-29T23:48:09.917Z,7.73
2019-01-29T23:50:35.869Z,6.77
2019-01-29T23:53:01.817Z,9.40
2019-01-29T23:55:27.691Z,7.40
2019-01-29T23:57:53.593Z,8.57
